Alamo Heights, Texas
Current Conditions -  °F | °C
As of 2:51 AM on Friday 24 Oct 2014 (Local Time) from KSAT Reporting Station
Clear Clear  
Wind Chill: 65°   Ceiling: Unl
Heat Index: 65°   Visibility: 10mi
Dew Point: 58°   Wind: 3mph
Humidity: 78%   Direction: 320°NW
Pressure: 30.13"   Gusts: NA
Location:  29.4797°N, 98.4508°W
Report Text: KSAT 240751Z 32003KT 10SM CLR 18/14 A3013 RMK AO2 SLP187 T01830144 $
Loading
Personal Weather Stations






























Interactive Weather Map
Tropical Storm Tracking
New forecast layout! Learn more

10-Day Weather Forecast

Advertisements
Track Severe Weather on mobile